sensor_id;sensor_type;location;lat;lon;timestamp;temperature;humidity
30244;DHT22;64022;53.652;9.792;2023-02-10T00:01:20;20.30;49.80
30244;DHT22;64022;53.652;9.792;2023-02-10T00:03:46;20.30;49.80
30244;DHT22;64022;53.652;9.792;2023-02-10T00:06:12;20.30;49.70
30244;DHT22;64022;53.652;9.792;2023-02-10T00:08:38;20.30;49.70
30244;DHT22;64022;53.652;9.792;2023-02-10T00:11:13;20.30;49.70
30244;DHT22;64022;53.652;9.792;2023-02-10T00:13:40;20.30;49.70
30244;DHT22;64022;53.652;9.792;2023-02-10T00:16:09;20.30;49.70
30244;DHT22;64022;53.652;9.792;2023-02-10T00:18:35;20.20;49.70
30244;DHT22;64022;53.652;9.792;2023-02-10T00:21:08;20.20;49.70
30244;DHT22;64022;53.652;9.792;2023-02-10T00:23:35;20.30;49.70
30244;DHT22;64022;53.652;9.792;2023-02-10T00:26:05;20.20;49.70
30244;DHT22;64022;53.652;9.792;2023-02-10T00:28:32;20.20;49.70
30244;DHT22;64022;53.652;9.792;2023-02-10T00:30:58;20.20;49.70
30244;DHT22;64022;53.652;9.792;2023-02-10T00:33:24;20.20;49.70
30244;DHT22;64022;53.652;9.792;2023-02-10T00:35:50;20.30;49.70
30244;DHT22;64022;53.652;9.792;2023-02-10T00:38:15;20.20;49.60
30244;DHT22;64022;53.652;9.792;2023-02-10T00:40:41;20.20;49.60
30244;DHT22;64022;53.652;9.792;2023-02-10T00:43:06;20.20;49.70
30244;DHT22;64022;53.652;9.792;2023-02-10T00:45:32;20.20;49.70
30244;DHT22;64022;53.652;9.792;2023-02-10T00:47:57;20.20;49.70
30244;DHT22;64022;53.652;9.792;2023-02-10T00:50:23;20.20;50.20
30244;DHT22;64022;53.652;9.792;2023-02-10T00:52:48;20.20;49.70
30244;DHT22;64022;53.652;9.792;2023-02-10T00:55:14;20.20;49.70
30244;DHT22;64022;53.652;9.792;2023-02-10T00:57:40;20.20;49.70
30244;DHT22;64022;53.652;9.792;2023-02-10T01:00:05;20.20;49.70
30244;DHT22;64022;53.652;9.792;2023-02-10T01:02:31;20.20;49.70
30244;DHT22;64022;53.652;9.792;2023-02-10T01:04:57;20.30;49.70
30244;DHT22;64022;53.652;9.792;2023-02-10T01:07:24;20.20;49.70
30244;DHT22;64022;53.652;9.792;2023-02-10T01:09:49;20.20;49.50
30244;DHT22;64022;53.652;9.792;2023-02-10T01:12:15;20.20;49.80
30244;DHT22;64022;53.652;9.792;2023-02-10T01:14:40;20.20;49.80
30244;DHT22;64022;53.652;9.792;2023-02-10T01:17:06;20.20;49.80
30244;DHT22;64022;53.652;9.792;2023-02-10T01:19:32;20.20;49.70
30244;DHT22;64022;53.652;9.792;2023-02-10T01:21:57;20.30;49.80
30244;DHT22;64022;53.652;9.792;2023-02-10T01:24:23;20.30;49.80
30244;DHT22;64022;53.652;9.792;2023-02-10T01:26:48;20.30;49.80
30244;DHT22;64022;53.652;9.792;2023-02-10T01:29:14;20.30;49.80
30244;DHT22;64022;53.652;9.792;2023-02-10T01:31:39;20.30;49.80
30244;DHT22;64022;53.652;9.792;2023-02-10T01:34:05;20.30;49.70
30244;DHT22;64022;53.652;9.792;2023-02-10T01:36:31;20.30;49.70
30244;DHT22;64022;53.652;9.792;2023-02-10T01:38:56;20.30;49.70
30244;DHT22;64022;53.652;9.792;2023-02-10T01:41:23;20.30;49.80
30244;DHT22;64022;53.652;9.792;2023-02-10T01:46:30;20.30;49.60
30244;DHT22;64022;53.652;9.792;2023-02-10T01:48:58;20.30;49.70
30244;DHT22;64022;53.652;9.792;2023-02-10T01:51:31;20.30;49.70
30244;DHT22;64022;53.652;9.792;2023-02-10T01:53:58;20.30;49.70
30244;DHT22;64022;53.652;9.792;2023-02-10T01:56:24;20.30;49.70
30244;DHT22;64022;53.652;9.792;2023-02-10T01:58:49;20.30;49.60
30244;DHT22;64022;53.652;9.792;2023-02-10T02:01:16;20.30;49.60
30244;DHT22;64022;53.652;9.792;2023-02-10T02:03:42;20.30;49.60
30244;DHT22;64022;53.652;9.792;2023-02-10T02:06:08;20.30;49.60
30244;DHT22;64022;53.652;9.792;2023-02-10T02:08:34;20.30;49.60
30244;DHT22;64022;53.652;9.792;2023-02-10T02:13:43;20.30;49.60
30244;DHT22;64022;53.652;9.792;2023-02-10T02:18:45;20.20;49.30
30244;DHT22;64022;53.652;9.792;2023-02-10T02:23:57;20.30;49.70
30244;DHT22;64022;53.652;9.792;2023-02-10T02:26:51;20.30;49.70
30244;DHT22;64022;53.652;9.792;2023-02-10T02:29:33;20.20;49.50
30244;DHT22;64022;53.652;9.792;2023-02-10T02:32:26;20.20;49.60
30244;DHT22;64022;53.652;9.792;2023-02-10T02:35:00;20.30;49.50
30244;DHT22;64022;53.652;9.792;2023-02-10T02:37:43;20.20;49.60
30244;DHT22;64022;53.652;9.792;2023-02-10T02:40:11;20.20;49.60
30244;DHT22;64022;53.652;9.792;2023-02-10T02:42:36;20.20;49.60
30244;DHT22;64022;53.652;9.792;2023-02-10T02:45:12;20.20;49.60
30244;DHT22;64022;53.652;9.792;2023-02-10T02:48:03;20.30;49.60
30244;DHT22;64022;53.652;9.792;2023-02-10T02:53:47;20.20;49.40
30244;DHT22;64022;53.652;9.792;2023-02-10T02:56:34;20.20;49.60
30244;DHT22;64022;53.652;9.792;2023-02-10T03:01:36;20.20;49.40
30244;DHT22;64022;53.652;9.792;2023-02-10T03:04:05;20.20;49.70
30244;DHT22;64022;53.652;9.792;2023-02-10T03:06:31;20.20;49.60
30244;DHT22;64022;53.652;9.792;2023-02-10T03:08:57;20.20;49.60
30244;DHT22;64022;53.652;9.792;2023-02-10T03:11:22;20.20;49.60
30244;DHT22;64022;53.652;9.792;2023-02-10T03:13:48;20.20;49.60
30244;DHT22;64022;53.652;9.792;2023-02-10T03:16:13;20.30;49.60
30244;DHT22;64022;53.652;9.792;2023-02-10T03:18:39;20.30;49.70
30244;DHT22;64022;53.652;9.792;2023-02-10T03:21:05;20.20;49.60
30244;DHT22;64022;53.652;9.792;2023-02-10T03:23:30;20.30;49.70
30244;DHT22;64022;53.652;9.792;2023-02-10T03:25:59;20.30;49.70
30244;DHT22;64022;53.652;9.792;2023-02-10T03:28:25;20.30;49.70
30244;DHT22;64022;53.652;9.792;2023-02-10T03:30:51;20.30;49.70
30244;DHT22;64022;53.652;9.792;2023-02-10T03:33:17;20.30;49.70
30244;DHT22;64022;53.652;9.792;2023-02-10T03:35:44;20.40;49.70
30244;DHT22;64022;53.652;9.792;2023-02-10T03:38:10;20.40;49.70
30244;DHT22;64022;53.652;9.792;2023-02-10T03:40:36;20.30;49.60
30244;DHT22;64022;53.652;9.792;2023-02-10T03:43:02;20.40;49.70
30244;DHT22;64022;53.652;9.792;2023-02-10T03:45:28;20.40;49.70
30244;DHT22;64022;53.652;9.792;2023-02-10T03:47:53;20.30;49.60
30244;DHT22;64022;53.652;9.792;2023-02-10T03:50:19;20.30;49.60
30244;DHT22;64022;53.652;9.792;2023-02-10T03:52:45;20.30;49.60
30244;DHT22;64022;53.652;9.792;2023-02-10T03:55:10;20.30;49.60
30244;DHT22;64022;53.652;9.792;2023-02-10T03:57:40;20.30;49.60
30244;DHT22;64022;53.652;9.792;2023-02-10T04:00:06;20.30;49.60
30244;DHT22;64022;53.652;9.792;2023-02-10T04:02:34;20.30;49.60
30244;DHT22;64022;53.652;9.792;2023-02-10T04:04:59;20.30;49.60
30244;DHT22;64022;53.652;9.792;2023-02-10T04:07:25;20.30;49.30
30244;DHT22;64022;53.652;9.792;2023-02-10T04:09:50;20.20;49.60
30244;DHT22;64022;53.652;9.792;2023-02-10T04:12:16;20.30;49.70
30244;DHT22;64022;53.652;9.792;2023-02-10T04:14:41;20.30;49.70
30244;DHT22;64022;53.652;9.792;2023-02-10T04:17:07;20.30;49.70
30244;DHT22;64022;53.652;9.792;2023-02-10T04:19:32;20.30;49.70
30244;DHT22;64022;53.652;9.792;2023-02-10T04:21:58;20.30;49.60
30244;DHT22;64022;53.652;9.792;2023-02-10T04:24:23;20.30;49.60
30244;DHT22;64022;53.652;9.792;2023-02-10T04:26:49;20.30;50.20
30244;DHT22;64022;53.652;9.792;2023-02-10T04:29:14;20.20;49.60
30244;DHT22;64022;53.652;9.792;2023-02-10T04:31:40;20.20;49.60
30244;DHT22;64022;53.652;9.792;2023-02-10T04:34:06;20.20;49.60
30244;DHT22;64022;53.652;9.792;2023-02-10T04:36:31;20.30;49.60
30244;DHT22;64022;53.652;9.792;2023-02-10T04:38:57;20.20;49.60
30244;DHT22;64022;53.652;9.792;2023-02-10T04:41:23;20.20;49.60
30244;DHT22;64022;53.652;9.792;2023-02-10T04:43:48;20.20;49.60
30244;DHT22;64022;53.652;9.792;2023-02-10T04:46:14;20.20;49.60
30244;DHT22;64022;53.652;9.792;2023-02-10T04:48:39;20.30;49.60
30244;DHT22;64022;53.652;9.792;2023-02-10T04:51:10;20.20;49.50
30244;DHT22;64022;53.652;9.792;2023-02-10T04:53:37;20.20;49.60
30244;DHT22;64022;53.652;9.792;2023-02-10T04:56:03;20.20;49.60
30244;DHT22;64022;53.652;9.792;2023-02-10T04:58:30;20.20;49.60
30244;DHT22;64022;53.652;9.792;2023-02-10T05:00:56;20.20;49.60
30244;DHT22;64022;53.652;9.792;2023-02-10T05:03:22;20.20;49.60
30244;DHT22;64022;53.652;9.792;2023-02-10T05:05:48;20.20;49.70
30244;DHT22;64022;53.652;9.792;2023-02-10T05:08:13;20.20;49.70
30244;DHT22;64022;53.652;9.792;2023-02-10T05:10:40;20.20;49.70
30244;DHT22;64022;53.652;9.792;2023-02-10T05:13:05;20.20;49.70
30244;DHT22;64022;53.652;9.792;2023-02-10T05:15:31;20.20;49.70
30244;DHT22;64022;53.652;9.792;2023-02-10T05:17:56;20.20;49.50
30244;DHT22;64022;53.652;9.792;2023-02-10T05:20:22;20.20;49.30
30244;DHT22;64022;53.652;9.792;2023-02-10T05:22:47;20.20;49.10
30244;DHT22;64022;53.652;9.792;2023-02-10T05:25:13;20.20;49.10
30244;DHT22;64022;53.652;9.792;2023-02-10T05:27:38;20.20;49.70
30244;DHT22;64022;53.652;9.792;2023-02-10T05:30:05;20.20;49.30
30244;DHT22;64022;53.652;9.792;2023-02-10T05:32:33;20.20;49.40
30244;DHT22;64022;53.652;9.792;2023-02-10T05:34:59;20.20;49.40
30244;DHT22;64022;53.652;9.792;2023-02-10T05:37:24;20.20;49.40
30244;DHT22;64022;53.652;9.792;2023-02-10T05:39:50;20.30;49.40
30244;DHT22;64022;53.652;9.792;2023-02-10T05:42:16;20.30;49.40
30244;DHT22;64022;53.652;9.792;2023-02-10T05:44:41;20.30;49.40
30244;DHT22;64022;53.652;9.792;2023-02-10T05:47:07;20.30;49.40
30244;DHT22;64022;53.652;9.792;2023-02-10T05:49:33;20.30;49.30
30244;DHT22;64022;53.652;9.792;2023-02-10T05:51:58;20.30;49.30
30244;DHT22;64022;53.652;9.792;2023-02-10T05:54:24;20.30;49.30
30244;DHT22;64022;53.652;9.792;2023-02-10T05:56:50;20.30;49.30
30244;DHT22;64022;53.652;9.792;2023-02-10T05:59:16;20.30;49.30
30244;DHT22;64022;53.652;9.792;2023-02-10T06:01:42;20.30;49.30
30244;DHT22;64022;53.652;9.792;2023-02-10T06:04:08;20.30;49.30
30244;DHT22;64022;53.652;9.792;2023-02-10T06:06:33;20.30;49.30
30244;DHT22;64022;53.652;9.792;2023-02-10T06:08:59;20.30;49.30
30244;DHT22;64022;53.652;9.792;2023-02-10T06:11:24;20.30;49.30
30244;DHT22;64022;53.652;9.792;2023-02-10T06:13:50;20.30;49.30
30244;DHT22;64022;53.652;9.792;2023-02-10T06:16:16;20.30;49.30
30244;DHT22;64022;53.652;9.792;2023-02-10T06:18:41;20.30;49.30
30244;DHT22;64022;53.652;9.792;2023-02-10T06:21:08;20.30;49.30
30244;DHT22;64022;53.652;9.792;2023-02-10T06:23:34;20.30;49.30
30244;DHT22;64022;53.652;9.792;2023-02-10T06:25:59;20.20;49.30
30244;DHT22;64022;53.652;9.792;2023-02-10T06:28:26;20.30;49.30
30244;DHT22;64022;53.652;9.792;2023-02-10T06:30:52;20.30;49.40
30244;DHT22;64022;53.652;9.792;2023-02-10T06:33:18;20.30;49.90
30244;DHT22;64022;53.652;9.792;2023-02-10T06:35:45;20.30;49.40
30244;DHT22;64022;53.652;9.792;2023-02-10T06:38:11;20.30;49.40
30244;DHT22;64022;53.652;9.792;2023-02-10T06:40:37;20.30;49.40
30244;DHT22;64022;53.652;9.792;2023-02-10T06:43:03;20.30;49.40
30244;DHT22;64022;53.652;9.792;2023-02-10T06:45:29;20.30;49.40
30244;DHT22;64022;53.652;9.792;2023-02-10T06:47:54;20.30;49.40
30244;DHT22;64022;53.652;9.792;2023-02-10T06:50:21;20.30;49.40
30244;DHT22;64022;53.652;9.792;2023-02-10T06:52:47;20.30;49.40
30244;DHT22;64022;53.652;9.792;2023-02-10T06:55:13;20.30;49.40
30244;DHT22;64022;53.652;9.792;2023-02-10T06:57:39;20.20;49.40
30244;DHT22;64022;53.652;9.792;2023-02-10T07:00:10;20.20;49.40
30244;DHT22;64022;53.652;9.792;2023-02-10T07:02:37;20.30;49.40
30244;DHT22;64022;53.652;9.792;2023-02-10T07:05:04;20.30;49.40
30244;DHT22;64022;53.652;9.792;2023-02-10T07:07:31;20.20;49.40
30244;DHT22;64022;53.652;9.792;2023-02-10T07:09:57;20.20;49.40
30244;DHT22;64022;53.652;9.792;2023-02-10T07:12:22;20.20;49.40
30244;DHT22;64022;53.652;9.792;2023-02-10T07:14:50;20.20;49.40
30244;DHT22;64022;53.652;9.792;2023-02-10T07:17:16;20.20;49.40
30244;DHT22;64022;53.652;9.792;2023-02-10T07:19:42;20.20;49.40
30244;DHT22;64022;53.652;9.792;2023-02-10T07:22:08;20.20;49.40
30244;DHT22;64022;53.652;9.792;2023-02-10T07:24:33;20.20;49.40
30244;DHT22;64022;53.652;9.792;2023-02-10T07:26:59;20.20;49.50
30244;DHT22;64022;53.652;9.792;2023-02-10T07:29:25;20.20;49.50
30244;DHT22;64022;53.652;9.792;2023-02-10T07:31:51;20.20;49.60
30244;DHT22;64022;53.652;9.792;2023-02-10T07:34:16;20.20;49.50
30244;DHT22;64022;53.652;9.792;2023-02-10T07:36:45;20.20;49.60
30244;DHT22;64022;53.652;9.792;2023-02-10T07:39:10;20.30;49.70
30244;DHT22;64022;53.652;9.792;2023-02-10T07:41:36;20.30;49.60
30244;DHT22;64022;53.652;9.792;2023-02-10T07:44:02;20.20;46.40
30244;DHT22;64022;53.652;9.792;2023-02-10T07:46:27;19.90;44.00
30244;DHT22;64022;53.652;9.792;2023-02-10T07:48:53;19.50;42.40
30244;DHT22;64022;53.652;9.792;2023-02-10T07:51:18;19.10;41.90
30244;DHT22;64022;53.652;9.792;2023-02-10T07:53:44;18.70;41.10
30244;DHT22;64022;53.652;9.792;2023-02-10T07:56:09;18.30;40.50
30244;DHT22;64022;53.652;9.792;2023-02-10T07:58:36;18.00;41.00
30244;DHT22;64022;53.652;9.792;2023-02-10T08:01:09;18.00;43.00
30244;DHT22;64022;53.652;9.792;2023-02-10T08:03:35;18.10;44.30
30244;DHT22;64022;53.652;9.792;2023-02-10T08:06:02;18.40;44.90
30244;DHT22;64022;53.652;9.792;2023-02-10T08:08:27;18.60;45.40
30244;DHT22;64022;53.652;9.792;2023-02-10T08:10:53;18.80;45.70
30244;DHT22;64022;53.652;9.792;2023-02-10T08:13:18;19.00;45.80
30244;DHT22;64022;53.652;9.792;2023-02-10T08:15:44;19.20;46.00
30244;DHT22;64022;53.652;9.792;2023-02-10T08:18:10;19.40;46.10
30244;DHT22;64022;53.652;9.792;2023-02-10T08:20:35;19.50;46.20
30244;DHT22;64022;53.652;9.792;2023-02-10T08:23:01;19.60;46.20
30244;DHT22;64022;53.652;9.792;2023-02-10T08:25:27;19.70;46.20
30244;DHT22;64022;53.652;9.792;2023-02-10T08:27:53;19.70;46.30
30244;DHT22;64022;53.652;9.792;2023-02-10T08:30:18;19.80;46.30
30244;DHT22;64022;53.652;9.792;2023-02-10T08:32:44;19.90;46.30
30244;DHT22;64022;53.652;9.792;2023-02-10T08:35:10;19.90;46.30
30244;DHT22;64022;53.652;9.792;2023-02-10T08:37:36;19.90;46.30
30244;DHT22;64022;53.652;9.792;2023-02-10T08:40:03;20.00;46.40
30244;DHT22;64022;53.652;9.792;2023-02-10T08:42:31;20.00;46.40
30244;DHT22;64022;53.652;9.792;2023-02-10T08:44:56;20.00;46.40
30244;DHT22;64022;53.652;9.792;2023-02-10T08:47:22;20.00;46.40
30244;DHT22;64022;53.652;9.792;2023-02-10T08:49:48;20.10;46.50
30244;DHT22;64022;53.652;9.792;2023-02-10T08:52:13;20.10;46.50
30244;DHT22;64022;53.652;9.792;2023-02-10T08:54:39;20.10;46.50
30244;DHT22;64022;53.652;9.792;2023-02-10T08:57:04;20.10;46.50
30244;DHT22;64022;53.652;9.792;2023-02-10T08:59:30;20.10;46.50
30244;DHT22;64022;53.652;9.792;2023-02-10T09:01:56;20.20;46.60
30244;DHT22;64022;53.652;9.792;2023-02-10T09:04:21;20.20;46.60
30244;DHT22;64022;53.652;9.792;2023-02-10T09:06:47;20.10;46.60
30244;DHT22;64022;53.652;9.792;2023-02-10T09:09:16;20.20;46.70
30244;DHT22;64022;53.652;9.792;2023-02-10T09:11:42;20.20;46.70
30244;DHT22;64022;53.652;9.792;2023-02-10T09:14:08;20.20;46.70
30244;DHT22;64022;53.652;9.792;2023-02-10T09:16:35;20.20;46.80
30244;DHT22;64022;53.652;9.792;2023-02-10T09:19:00;20.20;46.80
30244;DHT22;64022;53.652;9.792;2023-02-10T09:21:27;20.20;46.80
30244;DHT22;64022;53.652;9.792;2023-02-10T09:23:53;20.20;46.50
30244;DHT22;64022;53.652;9.792;2023-02-10T09:26:19;20.20;47.00
30244;DHT22;64022;53.652;9.792;2023-02-10T09:28:44;20.20;47.00
30244;DHT22;64022;53.652;9.792;2023-02-10T09:31:12;20.20;47.10
30244;DHT22;64022;53.652;9.792;2023-02-10T09:33:38;20.20;47.10
30244;DHT22;64022;53.652;9.792;2023-02-10T09:36:05;20.20;47.20
30244;DHT22;64022;53.652;9.792;2023-02-10T09:38:30;20.20;47.20
30244;DHT22;64022;53.652;9.792;2023-02-10T09:52:25;20.20;47.30
30244;DHT22;64022;53.652;9.792;2023-02-10T09:54:54;20.20;47.40
30244;DHT22;64022;53.652;9.792;2023-02-10T09:57:37;20.20;47.50
30244;DHT22;64022;53.652;9.792;2023-02-10T10:00:34;20.20;47.40
30244;DHT22;64022;53.652;9.792;2023-02-10T10:02:59;20.20;47.50
30244;DHT22;64022;53.652;9.792;2023-02-10T10:08:45;20.30;47.60
30244;DHT22;64022;53.652;9.792;2023-02-10T10:11:24;20.30;47.60
30244;DHT22;64022;53.652;9.792;2023-02-10T10:13:50;20.20;47.70
30244;DHT22;64022;53.652;9.792;2023-02-10T10:16:39;20.30;48.00
30244;DHT22;64022;53.652;9.792;2023-02-10T10:19:17;20.30;47.90
30244;DHT22;64022;53.652;9.792;2023-02-10T10:24:52;20.30;47.90
30244;DHT22;64022;53.652;9.792;2023-02-10T10:27:44;20.30;48.10
30244;DHT22;64022;53.652;9.792;2023-02-10T10:30:18;20.30;48.00
30244;DHT22;64022;53.652;9.792;2023-02-10T10:32:47;20.30;48.20
30244;DHT22;64022;53.652;9.792;2023-02-10T10:35:20;20.30;48.30
30244;DHT22;64022;53.652;9.792;2023-02-10T10:37:47;20.30;48.30
30244;DHT22;64022;53.652;9.792;2023-02-10T10:40:26;20.30;48.30
30244;DHT22;64022;53.652;9.792;2023-02-10T10:42:58;20.30;48.30
30244;DHT22;64022;53.652;9.792;2023-02-10T10:45:36;20.30;48.40
30244;DHT22;64022;53.652;9.792;2023-02-10T10:48:15;20.30;48.50
30244;DHT22;64022;53.652;9.792;2023-02-10T10:50:41;20.30;48.50
30244;DHT22;64022;53.652;9.792;2023-02-10T10:56:02;20.40;48.40
30244;DHT22;64022;53.652;9.792;2023-02-10T10:58:37;20.30;48.70
30244;DHT22;64022;53.652;9.792;2023-02-10T11:01:03;20.30;48.60
30244;DHT22;64022;53.652;9.792;2023-02-10T11:03:29;20.30;48.70
30244;DHT22;64022;53.652;9.792;2023-02-10T11:06:06;20.30;49.30
30244;DHT22;64022;53.652;9.792;2023-02-10T11:08:51;20.30;48.80
30244;DHT22;64022;53.652;9.792;2023-02-10T11:11:17;20.30;48.40
30244;DHT22;64022;53.652;9.792;2023-02-10T11:13:53;20.30;49.10
30244;DHT22;64022;53.652;9.792;2023-02-10T11:16:20;20.30;49.20
30244;DHT22;64022;53.652;9.792;2023-02-10T11:19:00;20.30;48.60
30244;DHT22;64022;53.652;9.792;2023-02-10T11:21:39;20.30;49.10
30244;DHT22;64022;53.652;9.792;2023-02-10T11:24:50;20.30;49.10
30244;DHT22;64022;53.652;9.792;2023-02-10T11:27:15;20.30;49.20
30244;DHT22;64022;53.652;9.792;2023-02-10T11:29:50;20.30;49.20
30244;DHT22;64022;53.652;9.792;2023-02-10T11:32:29;20.30;49.30
30244;DHT22;64022;53.652;9.792;2023-02-10T11:34:57;20.30;49.30
30244;DHT22;64022;53.652;9.792;2023-02-10T11:37:36;20.30;49.40
30244;DHT22;64022;53.652;9.792;2023-02-10T11:40:20;20.40;49.40
30244;DHT22;64022;53.652;9.792;2023-02-10T11:42:49;20.40;49.40
30244;DHT22;64022;53.652;9.792;2023-02-10T11:45:18;20.40;49.60
30244;DHT22;64022;53.652;9.792;2023-02-10T11:47:45;20.40;49.60
30244;DHT22;64022;53.652;9.792;2023-02-10T11:50:26;20.40;49.70
30244;DHT22;64022;53.652;9.792;2023-02-10T11:52:52;20.40;49.50
30244;DHT22;64022;53.652;9.792;2023-02-10T11:55:20;20.40;49.70
30244;DHT22;64022;53.652;9.792;2023-02-10T11:58:07;20.40;49.80
30244;DHT22;64022;53.652;9.792;2023-02-10T12:01:03;20.40;49.80
30244;DHT22;64022;53.652;9.792;2023-02-10T12:06:30;20.40;49.80
30244;DHT22;64022;53.652;9.792;2023-02-10T12:15:17;20.40;49.80
30244;DHT22;64022;53.652;9.792;2023-02-10T12:17:51;20.40;49.70
30244;DHT22;64022;53.652;9.792;2023-02-10T12:23:42;20.40;50.10
30244;DHT22;64022;53.652;9.792;2023-02-10T12:26:18;20.40;49.90
30244;DHT22;64022;53.652;9.792;2023-02-10T12:29:01;20.40;50.10
30244;DHT22;64022;53.652;9.792;2023-02-10T12:31:38;20.40;50.10
30244;DHT22;64022;53.652;9.792;2023-02-10T12:39:51;20.40;50.00
30244;DHT22;64022;53.652;9.792;2023-02-10T12:42:42;20.40;50.10
30244;DHT22;64022;53.652;9.792;2023-02-10T12:45:44;20.40;50.10
30244;DHT22;64022;53.652;9.792;2023-02-10T12:54:02;20.40;50.10
30244;DHT22;64022;53.652;9.792;2023-02-10T12:59:20;20.40;50.30
30244;DHT22;64022;53.652;9.792;2023-02-10T13:02:03;20.40;50.30
30244;DHT22;64022;53.652;9.792;2023-02-10T13:04:37;20.40;50.30
30244;DHT22;64022;53.652;9.792;2023-02-10T13:07:12;20.40;48.80
30244;DHT22;64022;53.652;9.792;2023-02-10T13:09:47;20.20;46.60
30244;DHT22;64022;53.652;9.792;2023-02-10T13:12:22;20.00;47.10
30244;DHT22;64022;53.652;9.792;2023-02-10T13:14:59;19.90;47.70
30244;DHT22;64022;53.652;9.792;2023-02-10T13:17:38;19.90;48.20
30244;DHT22;64022;53.652;9.792;2023-02-10T13:20:40;20.00;48.50
30244;DHT22;64022;53.652;9.792;2023-02-10T13:23:16;20.00;48.50
30244;DHT22;64022;53.652;9.792;2023-02-10T13:25:55;20.00;48.70
30244;DHT22;64022;53.652;9.792;2023-02-10T13:34:20;20.00;49.00
30244;DHT22;64022;53.652;9.792;2023-02-10T13:37:12;20.10;49.00
30244;DHT22;64022;53.652;9.792;2023-02-10T13:39:49;20.10;49.00
30244;DHT22;64022;53.652;9.792;2023-02-10T13:42:26;20.10;49.10
30244;DHT22;64022;53.652;9.792;2023-02-10T13:52:53;20.20;49.40
30244;DHT22;64022;53.652;9.792;2023-02-10T14:00:49;20.30;49.30
30244;DHT22;64022;53.652;9.792;2023-02-10T14:06:02;20.20;49.50
30244;DHT22;64022;53.652;9.792;2023-02-10T14:08:41;20.30;49.50
30244;DHT22;64022;53.652;9.792;2023-02-10T14:13:39;20.30;49.70
30244;DHT22;64022;53.652;9.792;2023-02-10T14:16:26;20.30;49.70
30244;DHT22;64022;53.652;9.792;2023-02-10T14:19:01;20.30;49.80
30244;DHT22;64022;53.652;9.792;2023-02-10T14:21:41;20.30;49.70
30244;DHT22;64022;53.652;9.792;2023-02-10T14:24:17;20.30;49.80
30244;DHT22;64022;53.652;9.792;2023-02-10T14:26:45;20.30;49.90
30244;DHT22;64022;53.652;9.792;2023-02-10T14:29:15;20.30;49.90
30244;DHT22;64022;53.652;9.792;2023-02-10T14:31:43;20.30;50.00
30244;DHT22;64022;53.652;9.792;2023-02-10T14:34:28;20.30;50.00
30244;DHT22;64022;53.652;9.792;2023-02-10T14:36:56;20.30;49.80
30244;DHT22;64022;53.652;9.792;2023-02-10T14:39:24;20.40;50.10
30244;DHT22;64022;53.652;9.792;2023-02-10T14:41:51;20.30;50.10
30244;DHT22;64022;53.652;9.792;2023-02-10T14:44:33;20.30;50.20
30244;DHT22;64022;53.652;9.792;2023-02-10T14:47:00;20.40;50.10
30244;DHT22;64022;53.652;9.792;2023-02-10T14:49:25;20.30;50.30
30244;DHT22;64022;53.652;9.792;2023-02-10T14:51:53;20.30;50.30
30244;DHT22;64022;53.652;9.792;2023-02-10T14:54:25;20.40;50.40
30244;DHT22;64022;53.652;9.792;2023-02-10T14:59:28;20.40;50.50
30244;DHT22;64022;53.652;9.792;2023-02-10T15:01:55;20.40;50.40
30244;DHT22;64022;53.652;9.792;2023-02-10T15:04:23;20.40;50.60
30244;DHT22;64022;53.652;9.792;2023-02-10T15:06:53;20.40;50.60
30244;DHT22;64022;53.652;9.792;2023-02-10T15:09:22;20.40;50.60
30244;DHT22;64022;53.652;9.792;2023-02-10T15:11:54;20.40;50.60
30244;DHT22;64022;53.652;9.792;2023-02-10T15:17:34;20.40;50.70
30244;DHT22;64022;53.652;9.792;2023-02-10T15:22:44;20.40;50.60
30244;DHT22;64022;53.652;9.792;2023-02-10T15:34:13;20.40;50.80
30244;DHT22;64022;53.652;9.792;2023-02-10T15:41:45;20.40;50.80
30244;DHT22;64022;53.652;9.792;2023-02-10T15:44:31;20.40;50.90
30244;DHT22;64022;53.652;9.792;2023-02-10T15:49:47;20.40;50.80
30244;DHT22;64022;53.652;9.792;2023-02-10T15:54:56;20.40;50.90
30244;DHT22;64022;53.652;9.792;2023-02-10T15:57:22;20.40;51.10
30244;DHT22;64022;53.652;9.792;2023-02-10T15:59:48;20.40;51.10
30244;DHT22;64022;53.652;9.792;2023-02-10T16:02:17;20.40;51.10
30244;DHT22;64022;53.652;9.792;2023-02-10T16:04:43;20.40;51.20
30244;DHT22;64022;53.652;9.792;2023-02-10T16:07:23;20.40;51.20
30244;DHT22;64022;53.652;9.792;2023-02-10T16:09:52;20.40;51.10
30244;DHT22;64022;53.652;9.792;2023-02-10T16:12:19;20.40;51.20
30244;DHT22;64022;53.652;9.792;2023-02-10T16:14:44;20.40;51.20
30244;DHT22;64022;53.652;9.792;2023-02-10T16:17:16;20.40;51.20
30244;DHT22;64022;53.652;9.792;2023-02-10T16:19:42;20.40;51.30
30244;DHT22;64022;53.652;9.792;2023-02-10T16:22:09;20.40;51.30
30244;DHT22;64022;53.652;9.792;2023-02-10T16:24:35;20.40;51.30
30244;DHT22;64022;53.652;9.792;2023-02-10T16:27:01;20.40;51.30
30244;DHT22;64022;53.652;9.792;2023-02-10T16:29:29;20.40;51.30
30244;DHT22;64022;53.652;9.792;2023-02-10T16:31:55;20.40;51.00
30244;DHT22;64022;53.652;9.792;2023-02-10T16:34:21;20.40;51.50
30244;DHT22;64022;53.652;9.792;2023-02-10T16:36:46;20.40;51.50
30244;DHT22;64022;53.652;9.792;2023-02-10T16:39:14;20.40;51.50
30244;DHT22;64022;53.652;9.792;2023-02-10T16:41:43;20.40;51.60
30244;DHT22;64022;53.652;9.792;2023-02-10T16:44:09;20.40;51.60
30244;DHT22;64022;53.652;9.792;2023-02-10T16:46:34;20.40;51.60
30244;DHT22;64022;53.652;9.792;2023-02-10T16:49:00;20.40;51.60
30244;DHT22;64022;53.652;9.792;2023-02-10T16:51:25;20.40;51.60
30244;DHT22;64022;53.652;9.792;2023-02-10T16:53:51;20.40;52.20
30244;DHT22;64022;53.652;9.792;2023-02-10T16:56:20;20.40;51.70
30244;DHT22;64022;53.652;9.792;2023-02-10T16:58:46;20.40;51.80
30244;DHT22;64022;53.652;9.792;2023-02-10T17:01:12;20.40;51.80
30244;DHT22;64022;53.652;9.792;2023-02-10T17:03:38;20.40;51.80
30244;DHT22;64022;53.652;9.792;2023-02-10T17:06:03;20.40;51.90
30244;DHT22;64022;53.652;9.792;2023-02-10T17:08:29;20.40;51.90
30244;DHT22;64022;53.652;9.792;2023-02-10T17:10:55;20.40;51.90
30244;DHT22;64022;53.652;9.792;2023-02-10T17:13:20;20.40;52.00
30244;DHT22;64022;53.652;9.792;2023-02-10T17:15:46;20.40;52.00
30244;DHT22;64022;53.652;9.792;2023-02-10T17:18:13;20.40;52.00
30244;DHT22;64022;53.652;9.792;2023-02-10T17:20:39;20.40;52.10
30244;DHT22;64022;53.652;9.792;2023-02-10T17:23:05;20.40;52.10
30244;DHT22;64022;53.652;9.792;2023-02-10T17:25:32;20.40;52.10
30244;DHT22;64022;53.652;9.792;2023-02-10T17:28:02;20.40;52.20
30244;DHT22;64022;53.652;9.792;2023-02-10T17:30:30;20.40;52.20
30244;DHT22;64022;53.652;9.792;2023-02-10T17:32:56;20.40;52.30
30244;DHT22;64022;53.652;9.792;2023-02-10T17:35:22;20.40;52.30
30244;DHT22;64022;53.652;9.792;2023-02-10T17:37:48;20.40;52.30